createdAt,value
2022-09-10T00:01:36.367Z,16.10
2022-09-10T00:04:08.879Z,16.10
2022-09-10T00:06:38.767Z,16.00
2022-09-10T00:09:07.727Z,15.90
2022-09-10T00:11:38.555Z,15.90
2022-09-10T00:14:08.086Z,15.80
2022-09-10T00:16:37.453Z,15.70
2022-09-10T00:19:06.638Z,15.60
2022-09-10T00:21:35.641Z,15.60
2022-09-10T00:24:05.239Z,15.60
2022-09-10T00:26:38.180Z,15.70
2022-09-10T00:29:07.925Z,15.70
2022-09-10T00:31:37.885Z,15.80
2022-09-10T00:34:06.752Z,15.80
2022-09-10T00:36:39.699Z,15.80
2022-09-10T00:39:10.049Z,15.80
2022-09-10T00:41:40.373Z,15.80
2022-09-10T00:44:32.632Z,15.80
2022-09-10T00:47:05.703Z,15.80
2022-09-10T00:49:38.592Z,15.90
2022-09-10T00:52:07.687Z,15.80
2022-09-10T00:54:37.169Z,15.80
2022-09-10T00:57:12.571Z,15.70
2022-09-10T00:59:43.198Z,15.70
2022-09-10T01:02:12.928Z,15.60
2022-09-10T01:04:41.146Z,15.60
2022-09-10T01:07:11.782Z,15.60
2022-09-10T01:09:40.804Z,15.60
2022-09-10T01:12:22.341Z,15.60
2022-09-10T01:15:09.357Z,15.60
2022-09-10T01:17:54.340Z,15.60
2022-09-10T01:20:55.840Z,15.60
2022-09-10T01:23:55.475Z,15.70
2022-09-10T01:26:36.507Z,15.70
2022-09-10T01:29:10.933Z,15.70
2022-09-10T01:31:43.693Z,15.70
2022-09-10T01:34:19.726Z,15.70
2022-09-10T01:36:52.011Z,15.60
2022-09-10T01:39:22.194Z,15.50
2022-09-10T01:41:50.973Z,15.50
2022-09-10T01:44:42.149Z,15.50
2022-09-10T01:47:17.767Z,15.40
2022-09-10T01:50:03.734Z,15.40
2022-09-10T01:52:44.021Z,15.40
2022-09-10T01:55:22.938Z,15.40
2022-09-10T01:57:56.294Z,15.40
2022-09-10T02:00:26.711Z,15.40
2022-09-10T02:03:00.120Z,15.40
2022-09-10T02:05:31.523Z,15.40
2022-09-10T02:08:03.741Z,15.40
2022-09-10T02:10:32.277Z,15.30
2022-09-10T02:13:00.204Z,15.40
2022-09-10T02:15:32.572Z,15.30
2022-09-10T02:18:01.394Z,15.30
2022-09-10T02:20:31.219Z,15.30
2022-09-10T02:23:00.961Z,15.20
2022-09-10T02:25:34.357Z,15.30
2022-09-10T02:28:03.254Z,15.30
2022-09-10T02:30:32.525Z,15.30
2022-09-10T02:33:00.441Z,15.40
2022-09-10T02:35:28.541Z,15.40
2022-09-10T02:37:56.868Z,15.40
2022-09-10T02:40:26.632Z,15.40
2022-09-10T02:42:55.615Z,15.40
2022-09-10T02:45:23.617Z,15.40
2022-09-10T02:47:52.923Z,15.40
2022-09-10T02:50:20.854Z,15.40
2022-09-10T02:52:51.462Z,15.40
2022-09-10T02:55:19.617Z,15.50
2022-09-10T02:57:47.492Z,15.50
2022-09-10T03:00:15.681Z,15.50
2022-09-10T03:02:43.597Z,15.50
2022-09-10T03:05:12.909Z,15.50
2022-09-10T03:07:40.992Z,15.50
2022-09-10T03:10:09.691Z,15.60
2022-09-10T03:12:39.152Z,15.70
2022-09-10T03:15:08.438Z,15.70
2022-09-10T03:17:36.347Z,15.70
2022-09-10T03:20:05.773Z,15.80
2022-09-10T03:22:35.163Z,15.80
2022-09-10T03:25:03.130Z,15.80
2022-09-10T03:27:31.222Z,15.90
2022-09-10T03:29:59.169Z,15.90
2022-09-10T03:32:27.850Z,15.80
2022-09-10T03:34:56.009Z,15.80
2022-09-10T03:37:24.210Z,15.80
2022-09-10T03:39:53.626Z,15.80
2022-09-10T03:42:21.597Z,15.90
2022-09-10T03:44:49.538Z,15.90
2022-09-10T03:47:18.340Z,15.90
2022-09-10T03:49:46.286Z,15.90
2022-09-10T03:52:14.178Z,15.90
2022-09-10T03:54:42.079Z,16.00
2022-09-10T03:57:11.617Z,16.00
2022-09-10T03:59:41.259Z,16.00
2022-09-10T04:02:10.331Z,16.00
2022-09-10T04:04:38.520Z,16.00
2022-09-10T04:07:07.068Z,16.00
2022-09-10T04:09:35.160Z,16.00
2022-09-10T04:12:03.911Z,15.90
2022-09-10T04:14:33.135Z,15.90
2022-09-10T04:17:01.039Z,15.90
2022-09-10T04:19:28.967Z,15.90
2022-09-10T04:21:57.902Z,15.90
2022-09-10T04:24:25.833Z,16.00
2022-09-10T04:26:53.737Z,16.00
2022-09-10T04:29:21.785Z,16.00
2022-09-10T04:31:51.092Z,16.00
2022-09-10T04:34:19.226Z,16.00
2022-09-10T04:36:47.195Z,15.90
2022-09-10T04:39:15.481Z,15.80
2022-09-10T04:41:43.431Z,15.80
2022-09-10T04:44:11.369Z,15.80
2022-09-10T04:46:39.233Z,15.70
2022-09-10T04:49:08.601Z,15.70
2022-09-10T04:51:36.484Z,15.60
2022-09-10T04:54:04.458Z,15.50
2022-09-10T04:56:32.870Z,15.40
2022-09-10T04:59:00.952Z,15.30
2022-09-10T05:01:29.083Z,15.30
2022-09-10T05:03:56.971Z,15.20
2022-09-10T05:06:26.223Z,15.20
2022-09-10T05:08:54.968Z,15.30
2022-09-10T05:11:23.731Z,15.30
2022-09-10T05:13:51.697Z,15.30
2022-09-10T05:16:21.317Z,15.30
2022-09-10T05:18:49.362Z,15.30
2022-09-10T05:21:18.193Z,15.40
2022-09-10T05:23:47.989Z,15.40
2022-09-10T05:26:15.895Z,15.40
2022-09-10T05:28:43.854Z,15.50
2022-09-10T05:31:12.995Z,15.50
2022-09-10T05:33:41.171Z,15.60
2022-09-10T05:36:10.897Z,15.60
2022-09-10T05:38:41.995Z,15.60
2022-09-10T05:41:12.278Z,15.70
2022-09-10T05:43:42.237Z,15.70
2022-09-10T05:46:10.436Z,15.70
2022-09-10T05:48:41.580Z,15.70
2022-09-10T05:51:10.295Z,15.80
2022-09-10T05:53:38.967Z,15.80
2022-09-10T05:56:07.713Z,15.80
2022-09-10T05:58:37.051Z,15.80
2022-09-10T06:01:05.256Z,15.80
2022-09-10T06:03:33.388Z,15.80
2022-09-10T06:06:01.313Z,15.90
2022-09-10T06:08:29.213Z,15.90
2022-09-10T06:11:00.356Z,15.90
2022-09-10T06:13:28.681Z,16.00
2022-09-10T06:15:58.021Z,16.10
2022-09-10T06:18:26.042Z,16.10
2022-09-10T06:21:03.459Z,16.20
2022-09-10T06:23:31.557Z,16.20
2022-09-10T06:26:04.666Z,16.30
2022-09-10T06:28:33.551Z,16.40
2022-09-10T06:31:04.410Z,16.50
2022-09-10T06:33:32.832Z,16.60
2022-09-10T06:36:03.362Z,16.70
2022-09-10T06:38:33.584Z,16.80
2022-09-10T06:41:04.755Z,16.90
2022-09-10T06:43:36.292Z,17.20
2022-09-10T06:46:26.828Z,17.30
2022-09-10T06:49:00.936Z,17.70
2022-09-10T06:51:29.531Z,18.10
2022-09-10T06:53:57.883Z,18.20
2022-09-10T06:56:26.235Z,18.30
2022-09-10T06:58:54.162Z,18.30
2022-09-10T07:01:23.999Z,18.20
2022-09-10T07:03:56.878Z,18.20
2022-09-10T07:06:25.820Z,18.10
2022-09-10T07:08:56.559Z,18.00
2022-09-10T07:11:25.637Z,18.00
2022-09-10T07:13:54.723Z,18.10
2022-09-10T07:16:26.121Z,18.00
2022-09-10T07:18:55.599Z,17.90
2022-09-10T07:21:25.321Z,17.90
2022-09-10T07:23:56.642Z,17.80
2022-09-10T07:26:25.326Z,17.90
2022-09-10T07:28:53.674Z,18.20
2022-09-10T07:31:24.873Z,18.70
2022-09-10T07:33:52.935Z,18.90
2022-09-10T07:36:20.949Z,18.80
2022-09-10T07:38:52.044Z,18.80
2022-09-10T07:41:20.067Z,18.70
2022-09-10T07:43:49.325Z,18.70
2022-09-10T07:46:20.498Z,18.50
2022-09-10T07:48:53.596Z,18.60
2022-09-10T07:51:21.660Z,18.70
2022-09-10T07:53:55.254Z,18.90
2022-09-10T07:56:24.226Z,19.00
2022-09-10T07:58:53.926Z,19.10
2022-09-10T08:01:22.429Z,19.40
2022-09-10T08:03:51.967Z,19.90
2022-09-10T08:06:20.448Z,20.10
2022-09-10T08:08:48.647Z,20.00
2022-09-10T08:11:17.987Z,19.90
2022-09-10T08:13:48.125Z,19.70
2022-09-10T08:16:19.072Z,19.60
2022-09-10T08:18:47.814Z,19.40
2022-09-10T08:21:18.711Z,19.20
2022-09-10T08:23:51.022Z,19.00
2022-09-10T08:26:21.339Z,18.80
2022-09-10T08:28:49.382Z,18.80
2022-09-10T08:31:18.199Z,18.70
2022-09-10T08:33:50.560Z,18.50
2022-09-10T08:36:21.886Z,18.50
2022-09-10T08:38:51.081Z,18.50
2022-09-10T08:41:31.377Z,18.50
2022-09-10T08:44:03.894Z,18.40
2022-09-10T08:46:35.992Z,18.30
2022-09-10T08:49:12.663Z,18.20
2022-09-10T08:51:45.312Z,18.10
2022-09-10T08:54:17.091Z,18.00
2022-09-10T08:56:46.912Z,18.00
2022-09-10T08:59:22.357Z,18.00
2022-09-10T09:01:56.391Z,18.10
2022-09-10T09:04:38.718Z,18.20
2022-09-10T09:07:14.237Z,18.20
2022-09-10T09:09:42.951Z,18.20
2022-09-10T09:12:18.993Z,18.20
2022-09-10T09:14:54.849Z,18.40
2022-09-10T09:17:47.851Z,18.60
2022-09-10T09:20:18.886Z,18.80
2022-09-10T09:22:53.311Z,18.80
2022-09-10T09:25:28.398Z,18.60
2022-09-10T09:27:58.484Z,18.50
2022-09-10T09:30:32.046Z,18.40
2022-09-10T09:33:04.644Z,18.40
2022-09-10T09:35:34.777Z,18.70
2022-09-10T09:38:17.033Z,19.20
2022-09-10T09:40:48.402Z,19.70
2022-09-10T09:43:25.358Z,20.10
2022-09-10T09:45:54.428Z,20.20
2022-09-10T09:48:24.570Z,20.10
2022-09-10T09:50:55.326Z,20.20
2022-09-10T09:53:26.462Z,20.40
2022-09-10T09:55:56.436Z,20.50
2022-09-10T09:58:35.630Z,20.50
2022-09-10T10:01:22.261Z,20.50
2022-09-10T10:03:54.526Z,20.50
2022-09-10T10:06:25.545Z,20.50
2022-09-10T10:08:58.193Z,20.40
2022-09-10T10:11:42.569Z,20.10
2022-09-10T10:14:22.900Z,19.80
2022-09-10T10:16:57.378Z,19.60
2022-09-10T10:19:34.233Z,19.30
2022-09-10T10:22:22.361Z,18.80
2022-09-10T10:24:54.086Z,18.30
2022-09-10T10:27:32.944Z,18.10
2022-09-10T10:30:06.144Z,17.80
2022-09-10T10:32:42.276Z,17.60
2022-09-10T10:35:24.353Z,17.50
2022-09-10T10:38:14.364Z,17.40
2022-09-10T10:40:48.660Z,17.50
2022-09-10T10:43:26.102Z,17.60
2022-09-10T10:46:02.178Z,17.80
2022-09-10T10:48:44.766Z,17.90
2022-09-10T10:51:18.164Z,18.00
2022-09-10T10:53:58.036Z,18.10
2022-09-10T10:56:31.956Z,18.10
2022-09-10T10:59:18.926Z,18.40
2022-09-10T11:01:51.348Z,18.30
2022-09-10T11:04:29.035Z,18.30
2022-09-10T11:07:03.373Z,18.20
2022-09-10T11:09:39.034Z,18.00
2022-09-10T11:12:13.269Z,17.80
2022-09-10T11:14:48.673Z,17.80
2022-09-10T11:17:20.972Z,17.80
2022-09-10T11:20:11.086Z,17.90
2022-09-10T11:22:50.129Z,18.00
2022-09-10T11:25:25.233Z,18.30
2022-09-10T11:28:00.110Z,18.60
2022-09-10T11:30:28.761Z,18.70
2022-09-10T11:33:01.682Z,19.00
2022-09-10T11:35:42.624Z,19.10
2022-09-10T11:38:18.257Z,19.10
2022-09-10T11:40:52.260Z,19.40
2022-09-10T11:43:30.137Z,20.00
2022-09-10T11:46:00.897Z,20.60
2022-09-10T11:48:37.157Z,21.10
2022-09-10T11:51:13.273Z,21.60
2022-09-10T11:53:41.329Z,21.80
2022-09-10T11:56:24.224Z,22.10
2022-09-10T11:59:02.520Z,22.40
2022-09-10T12:01:48.563Z,22.40
2022-09-10T12:04:39.816Z,22.30
2022-09-10T12:07:17.487Z,22.30
2022-09-10T12:09:55.251Z,22.30
2022-09-10T12:12:29.469Z,22.20
2022-09-10T12:14:59.901Z,22.10
2022-09-10T12:17:32.076Z,22.10
2022-09-10T12:20:02.003Z,22.30
2022-09-10T12:22:35.763Z,22.50
2022-09-10T12:25:05.919Z,22.40
2022-09-10T12:27:49.251Z,22.20
2022-09-10T12:30:59.139Z,21.80
2022-09-10T12:33:59.383Z,21.60
2022-09-10T12:37:19.869Z,21.30
2022-09-10T12:39:48.527Z,21.10
2022-09-10T12:42:32.252Z,21.20
2022-09-10T12:45:00.647Z,21.20
2022-09-10T12:47:46.891Z,21.30
2022-09-10T12:50:37.304Z,21.30
2022-09-10T12:53:47.326Z,21.30
2022-09-10T12:56:40.134Z,21.20
2022-09-10T12:59:39.053Z,21.20
2022-09-10T13:02:21.398Z,21.30
2022-09-10T13:04:57.147Z,21.40
2022-09-10T13:07:33.824Z,21.50
2022-09-10T13:10:06.092Z,21.60
2022-09-10T13:12:37.655Z,21.60
2022-09-10T13:15:07.083Z,21.80
2022-09-10T13:18:28.195Z,22.00
2022-09-10T13:20:56.767Z,22.00
2022-09-10T13:23:47.638Z,21.90
2022-09-10T13:26:38.364Z,21.80
2022-09-10T13:29:11.355Z,21.80
2022-09-10T13:31:43.540Z,22.00
2022-09-10T13:34:32.610Z,22.00
2022-09-10T13:37:21.239Z,22.00
2022-09-10T13:40:10.450Z,21.90
2022-09-10T13:43:08.906Z,21.80
2022-09-10T13:45:40.670Z,21.60
2022-09-10T13:48:15.026Z,21.60
2022-09-10T13:50:51.107Z,21.60
2022-09-10T13:53:20.895Z,21.40
2022-09-10T13:55:55.252Z,21.40
2022-09-10T13:58:28.512Z,21.40
2022-09-10T14:00:57.987Z,21.40
2022-09-10T14:03:30.658Z,21.40
2022-09-10T14:06:01.595Z,21.50
2022-09-10T14:08:34.104Z,21.60
2022-09-10T14:11:08.380Z,21.80
2022-09-10T14:13:41.697Z,22.00
2022-09-10T14:16:15.286Z,22.00
2022-09-10T14:18:46.835Z,21.80
2022-09-10T14:21:16.002Z,21.60
2022-09-10T14:23:45.952Z,21.50
2022-09-10T14:26:23.341Z,21.40
2022-09-10T14:28:56.744Z,21.40
2022-09-10T14:31:34.760Z,21.40
2022-09-10T14:34:31.563Z,21.40
2022-09-10T14:37:00.208Z,21.50
2022-09-10T14:39:28.437Z,21.50
2022-09-10T14:42:12.044Z,21.50
2022-09-10T14:44:43.988Z,21.50
2022-09-10T14:47:23.832Z,21.40
2022-09-10T14:49:52.834Z,21.50
2022-09-10T14:52:22.176Z,21.40
2022-09-10T14:54:50.048Z,21.40
2022-09-10T14:57:19.780Z,21.20
2022-09-10T14:59:47.907Z,21.10
2022-09-10T15:02:18.401Z,21.00
2022-09-10T15:04:46.578Z,21.10
2022-09-10T15:07:14.632Z,21.00
2022-09-10T15:09:42.690Z,20.80
2022-09-10T15:12:15.954Z,20.70
2022-09-10T15:14:45.912Z,20.60
2022-09-10T15:17:15.250Z,20.50
2022-09-10T15:19:43.217Z,20.60
2022-09-10T15:22:20.682Z,20.60
2022-09-10T15:25:08.614Z,20.50
2022-09-10T15:27:37.303Z,20.40
2022-09-10T15:30:08.073Z,20.00
2022-09-10T15:32:35.964Z,19.50
2022-09-10T15:35:05.305Z,19.10
2022-09-10T15:37:33.331Z,19.10
2022-09-10T15:40:01.398Z,19.10
2022-09-10T15:42:29.379Z,19.20
2022-09-10T15:44:57.320Z,19.30
2022-09-10T15:47:27.085Z,19.40
2022-09-10T15:49:55.007Z,19.50
2022-09-10T15:52:22.874Z,19.60
2022-09-10T15:54:50.751Z,19.60
2022-09-10T15:57:18.764Z,19.80
2022-09-10T15:59:47.352Z,19.90
2022-09-10T16:02:15.297Z,20.00
2022-09-10T16:04:44.599Z,19.90
2022-09-10T16:07:13.788Z,19.80
2022-09-10T16:09:42.421Z,19.80
2022-09-10T16:12:10.673Z,19.60
2022-09-10T16:14:38.733Z,19.60
2022-09-10T16:17:10.518Z,19.50
2022-09-10T16:19:38.645Z,19.50
2022-09-10T16:22:08.364Z,19.60
2022-09-10T16:24:36.356Z,19.50
2022-09-10T16:27:04.508Z,19.50
2022-09-10T16:29:32.608Z,19.50
2022-09-10T16:32:00.812Z,19.40
2022-09-10T16:34:28.848Z,19.50
2022-09-10T16:36:56.888Z,19.40
2022-09-10T16:39:26.185Z,19.30
2022-09-10T16:41:54.155Z,19.20
2022-09-10T16:44:22.188Z,19.00
2022-09-10T16:46:50.278Z,18.90
2022-09-10T16:49:19.761Z,18.90
2022-09-10T16:51:48.975Z,18.70
2022-09-10T16:54:19.947Z,18.70
2022-09-10T16:56:50.384Z,18.70
2022-09-10T16:59:20.622Z,18.60
2022-09-10T17:01:50.348Z,18.50
2022-09-10T17:04:24.668Z,18.50
2022-09-10T17:06:56.214Z,18.40
2022-09-10T17:09:25.008Z,18.30
2022-09-10T17:11:54.540Z,18.30
2022-09-10T17:14:22.626Z,18.10
2022-09-10T17:16:50.985Z,18.10
2022-09-10T17:19:23.557Z,18.00
2022-09-10T17:21:53.287Z,17.90
2022-09-10T17:24:23.282Z,17.90
2022-09-10T17:26:51.677Z,17.90
2022-09-10T17:29:23.152Z,17.80
2022-09-10T17:31:52.363Z,17.70
2022-09-10T17:34:21.678Z,17.70
2022-09-10T17:36:49.831Z,17.80
2022-09-10T17:39:18.471Z,17.70
2022-09-10T17:41:47.048Z,17.60
2022-09-10T17:44:16.106Z,17.60
2022-09-10T17:46:46.332Z,17.50
2022-09-10T17:49:14.729Z,17.50
2022-09-10T17:51:43.094Z,17.50
2022-09-10T17:54:13.220Z,17.40
2022-09-10T17:56:41.895Z,17.40
2022-09-10T17:59:12.904Z,17.30
2022-09-10T18:01:41.124Z,17.20
2022-09-10T18:04:12.753Z,17.10
2022-09-10T18:06:40.864Z,17.00
2022-09-10T18:09:09.487Z,16.90
2022-09-10T18:11:39.699Z,16.90
2022-09-10T18:14:08.281Z,16.90
2022-09-10T18:16:37.811Z,16.80
2022-09-10T18:19:13.877Z,16.80
2022-09-10T18:21:45.147Z,16.70
2022-09-10T18:24:15.521Z,16.70
2022-09-10T18:26:45.004Z,16.70
2022-09-10T18:29:15.120Z,16.70
2022-09-10T18:31:45.391Z,16.80
2022-09-10T18:34:18.494Z,16.80
2022-09-10T18:36:54.565Z,16.90
2022-09-10T18:39:23.840Z,16.90
2022-09-10T18:41:52.299Z,16.90
2022-09-10T18:44:23.596Z,16.90
2022-09-10T18:46:52.992Z,16.90
2022-09-10T18:49:23.460Z,17.00
2022-09-10T18:51:53.769Z,17.00
2022-09-10T18:54:23.230Z,17.00
2022-09-10T18:56:53.421Z,17.00
2022-09-10T18:59:23.302Z,17.00
2022-09-10T19:01:52.883Z,17.00
2022-09-10T19:04:23.779Z,17.00
2022-09-10T19:06:53.465Z,17.00
2022-09-10T19:09:23.825Z,16.90
2022-09-10T19:11:54.069Z,16.80
2022-09-10T19:14:26.275Z,16.80
2022-09-10T19:16:56.415Z,16.70
2022-09-10T19:19:26.444Z,16.60
2022-09-10T19:21:59.379Z,16.50
2022-09-10T19:24:51.098Z,16.40
2022-09-10T19:27:16.020Z,16.40
2022-09-10T19:29:44.380Z,16.30
2022-09-10T19:32:14.545Z,16.20
2022-09-10T19:34:42.830Z,16.20
2022-09-10T19:37:13.035Z,16.20
2022-09-10T19:39:41.261Z,16.30
2022-09-10T19:42:09.719Z,16.30
2022-09-10T19:44:38.079Z,16.30
2022-09-10T19:47:06.167Z,16.40
2022-09-10T19:49:34.390Z,16.30
2022-09-10T19:52:04.384Z,16.30
2022-09-10T19:54:33.675Z,16.30
2022-09-10T19:57:01.880Z,16.30
2022-09-10T19:59:30.077Z,16.30
2022-09-10T20:01:58.197Z,16.30
2022-09-10T20:04:27.826Z,16.30
2022-09-10T20:06:55.908Z,16.20
2022-09-10T20:09:39.245Z,16.20
2022-09-10T20:12:10.261Z,16.30
2022-09-10T20:14:38.499Z,16.40
2022-09-10T20:17:06.435Z,16.40
2022-09-10T20:19:34.423Z,16.30
2022-09-10T20:22:02.454Z,16.40
2022-09-10T20:24:30.388Z,16.40
2022-09-10T20:26:58.382Z,16.40
2022-09-10T20:29:28.498Z,16.40
2022-09-10T20:31:56.551Z,16.50
2022-09-10T20:34:24.581Z,16.50
2022-09-10T20:36:53.366Z,16.50
2022-09-10T20:39:25.224Z,16.50
2022-09-10T20:41:53.222Z,16.50
2022-09-10T20:44:21.509Z,16.50
2022-09-10T20:46:52.142Z,16.40
2022-09-10T20:49:20.633Z,16.40
2022-09-10T20:51:48.655Z,16.40
2022-09-10T20:54:19.555Z,16.40
2022-09-10T20:56:48.308Z,16.30
2022-09-10T20:59:17.902Z,16.20
2022-09-10T21:01:46.995Z,16.20
2022-09-10T21:04:16.540Z,16.10
2022-09-10T21:06:44.543Z,16.10
2022-09-10T21:09:13.435Z,16.10
2022-09-10T21:11:41.617Z,16.10
2022-09-10T21:14:10.216Z,16.00
2022-09-10T21:16:41.680Z,16.10
2022-09-10T21:19:12.852Z,15.90
2022-09-10T21:21:43.261Z,15.80
2022-09-10T21:24:13.274Z,15.80
2022-09-10T21:26:43.408Z,15.70
2022-09-10T21:29:13.934Z,15.70
2022-09-10T21:31:42.096Z,15.70
2022-09-10T21:34:10.240Z,15.60
2022-09-10T21:36:41.081Z,15.60
2022-09-10T21:39:14.300Z,15.60
2022-09-10T21:41:44.082Z,15.60
2022-09-10T21:44:14.623Z,15.60
2022-09-10T21:46:43.108Z,15.60
2022-09-10T21:49:11.331Z,15.60
2022-09-10T21:51:39.598Z,15.60
2022-09-10T21:54:07.564Z,15.60
2022-09-10T21:56:36.916Z,15.60
2022-09-10T21:59:04.829Z,15.60
2022-09-10T22:01:33.502Z,15.60
2022-09-10T22:04:02.245Z,15.60
2022-09-10T22:06:31.275Z,15.50
2022-09-10T22:09:00.925Z,15.50
2022-09-10T22:11:31.221Z,15.50
2022-09-10T22:14:02.172Z,15.40
2022-09-10T22:16:32.088Z,15.30
2022-09-10T22:19:02.244Z,15.30
2022-09-10T22:21:31.178Z,15.30
2022-09-10T22:23:59.375Z,15.40
2022-09-10T22:26:29.162Z,15.30
2022-09-10T22:28:59.320Z,15.30
2022-09-10T22:31:31.564Z,15.30
2022-09-10T22:34:01.701Z,15.30
2022-09-10T22:36:32.852Z,15.30
2022-09-10T22:39:02.404Z,15.30
2022-09-10T22:41:31.862Z,15.30
2022-09-10T22:44:00.217Z,15.30
2022-09-10T22:46:30.920Z,15.40
2022-09-10T22:48:59.609Z,15.40
2022-09-10T22:51:29.771Z,15.40
2022-09-10T22:53:59.205Z,15.40
2022-09-10T22:56:28.142Z,15.40
2022-09-10T22:58:57.787Z,15.50
2022-09-10T23:01:28.100Z,15.50
2022-09-10T23:03:58.254Z,15.50
2022-09-10T23:06:28.356Z,15.50
2022-09-10T23:08:58.045Z,15.50
2022-09-10T23:11:27.812Z,15.50
2022-09-10T23:13:58.183Z,15.50
2022-09-10T23:16:28.805Z,15.50
2022-09-10T23:19:00.258Z,15.50
2022-09-10T23:21:30.155Z,15.60
2022-09-10T23:24:00.511Z,15.60
2022-09-10T23:26:29.303Z,15.60
2022-09-10T23:28:57.762Z,15.60
2022-09-10T23:31:28.158Z,15.60
2022-09-10T23:33:59.616Z,15.60
2022-09-10T23:36:30.026Z,15.60
2022-09-10T23:38:58.512Z,15.70
2022-09-10T23:41:27.070Z,15.70
2022-09-10T23:43:55.277Z,15.70
2022-09-10T23:46:23.301Z,15.80
2022-09-10T23:48:51.607Z,15.80
2022-09-10T23:51:22.676Z,15.80
2022-09-10T23:53:51.304Z,15.80
2022-09-10T23:56:21.729Z,15.80
2022-09-10T23:58:50.363Z,15.80
